Time;durP1;ratioP1;P1;durP2;ratioP2;P2;SDS_P1;SDS_P2;PMS_P1;PMS_P2;Temp;Humidity;BMP_temperature;BMP_pressure;BME280_temperature;BME280_humidity;BME280_pressure;Samples;Min_cycle;Max_cycle;Signal;HPM_P1;HPM_P2
2023/11/04 00:00:11;;;;;;;23.05;14.10;;;;;;;10.59;100.00;99209.14;1686196;85;21532;-70
2023/11/04 00:02:40;;;;;;;23.85;14.00;;;;;;;10.60;100.00;99206.17;1686244;85;21099;-69
2023/11/04 00:05:09;;;;;;;22.05;13.93;;;;;;;10.62;100.00;99204.58;1653554;86;21087;-69
2023/11/04 00:07:39;;;;;;;22.87;13.45;;;;;;;10.65;100.00;99195.91;1686187;84;21023;-70
2023/11/04 00:10:09;;;;;;;20.52;12.88;;;;;;;10.65;100.00;99174.00;1686115;85;21086;-70
2023/11/04 00:12:39;;;;;;;22.13;12.05;;;;;;;10.66;100.00;99167.45;1686230;85;21098;-69
2023/11/04 00:15:08;;;;;;;21.20;12.73;;;;;;;10.68;100.00;99170.80;1686419;85;21023;-69
2023/11/04 00:17:37;;;;;;;19.05;12.65;;;;;;;10.69;100.00;99153.30;1686502;85;21518;-69
2023/11/04 00:20:07;;;;;;;19.65;12.85;;;;;;;10.69;100.00;99154.67;1685799;85;21086;-69
2023/11/04 00:22:36;;;;;;;18.23;11.50;;;;;;;10.71;100.00;99150.63;1685026;85;21075;-70
2023/11/04 00:25:06;;;;;;;19.55;11.78;;;;;;;10.72;100.00;99152.84;1684949;85;21110;-69
2023/11/04 00:27:36;;;;;;;20.00;11.75;;;;;;;10.70;100.00;99139.91;1685063;85;21083;-69
2023/11/04 00:30:08;;;;;;;19.77;11.75;;;;;;;10.73;100.00;99127.95;1649522;87;21497;-71
2023/11/04 00:32:36;;;;;;;16.80;11.55;;;;;;;10.74;100.00;99115.09;1682786;85;21090;-67
2023/11/04 00:35:07;;;;;;;17.45;11.48;;;;;;;10.75;100.00;99108.55;1682612;85;21070;-69
2023/11/04 00:37:37;;;;;;;16.67;11.45;;;;;;;10.76;100.00;99121.17;1682685;85;21067;-69
2023/11/04 00:40:08;;;;;;;17.30;10.28;;;;;;;10.76;100.00;99130.23;1682349;85;21039;-70
2023/11/04 00:42:37;;;;;;;17.12;10.80;;;;;;;10.77;100.00;99128.33;1682528;85;21031;-69
2023/11/04 00:45:09;;;;;;;17.57;10.18;;;;;;;10.76;100.00;99126.13;1649762;87;21074;-69
2023/11/04 00:47:38;;;;;;;15.35;9.80;;;;;;;10.78;100.00;99123.99;1682561;85;21067;-69
2023/11/04 00:50:08;;;;;;;16.82;10.25;;;;;;;10.79;100.00;99137.99;1682573;85;21549;-69
2023/11/04 00:52:39;;;;;;;15.35;10.32;;;;;;;10.81;100.00;99145.98;1648093;87;21123;-69
2023/11/04 00:55:09;;;;;;;16.45;9.78;;;;;;;10.82;100.00;99142.17;1682915;85;21047;-69
2023/11/04 00:57:38;;;;;;;14.90;10.03;;;;;;;10.84;100.00;99134.56;1682821;85;21142;-69
2023/11/04 01:00:09;;;;;;;14.80;9.33;;;;;;;10.84;100.00;99130.45;1649611;87;21511;-70
2023/11/04 01:02:39;;;;;;;15.85;10.28;;;;;;;10.87;100.00;99130.53;1682540;85;21099;-68
2023/11/04 01:05:10;;;;;;;14.90;10.05;;;;;;;10.87;100.00;99140.95;1682752;85;21071;-69
2023/11/04 01:07:39;;;;;;;15.08;9.48;;;;;;;10.88;100.00;99130.83;1682770;85;21106;-69
2023/11/04 01:10:10;;;;;;;15.20;10.40;;;;;;;10.88;100.00;99128.92;1682656;85;21003;-69
2023/11/04 01:12:40;;;;;;;15.93;10.70;;;;;;;10.88;100.00;99122.08;1682619;85;21058;-69
2023/11/04 01:15:10;;;;;;;15.30;10.05;;;;;;;10.90;100.00;99124.05;1682861;85;21026;-71
2023/11/04 01:17:39;;;;;;;18.92;11.05;;;;;;;10.91;100.00;99114.76;1682819;85;21086;-69
2023/11/04 01:20:10;;;;;;;17.65;11.57;;;;;;;10.91;100.00;99104.33;1651386;85;21058;-68
2023/11/04 01:22:38;;;;;;;15.85;10.45;;;;;;;10.92;100.00;99091.77;1645861;87;21117;-69
2023/11/04 01:25:08;;;;;;;17.55;11.78;;;;;;;10.93;100.00;99096.19;1658377;86;21054;-70
2023/11/04 01:27:37;;;;;;;15.43;10.90;;;;;;;10.94;100.00;99095.11;1658350;86;21043;-70
2023/11/04 01:30:07;;;;;;;16.97;11.08;;;;;;;10.93;100.00;99111.26;1658114;86;21466;-72
2023/11/04 01:32:37;;;;;;;17.30;11.55;;;;;;;10.94;100.00;99097.86;1646014;87;21049;-71
2023/11/04 01:35:10;;;;;;;18.12;11.43;;;;;;;10.97;100.00;99111.63;1658175;86;21553;-70
2023/11/04 01:37:38;;;;;;;17.67;11.53;;;;;;;10.98;100.00;99137.44;1645869;87;21046;-69
2023/11/04 01:40:11;;;;;;;18.35;11.97;;;;;;;11.00;100.00;99152.27;1658167;86;21101;-69
2023/11/04 01:42:44;;;;;;;18.87;12.28;;;;;;;11.01;100.00;99161.63;1658339;85;21102;-69
2023/11/04 01:45:12;;;;;;;20.20;12.95;;;;;;;11.03;100.00;99149.07;1658219;86;21086;-69
2023/11/04 01:47:41;;;;;;;21.40;13.10;;;;;;;11.04;100.00;99126.08;1645889;87;21069;-70
2023/11/04 01:50:10;;;;;;;19.75;12.98;;;;;;;11.05;100.00;99116.28;1658353;86;21524;-69
2023/11/04 01:52:40;;;;;;;19.48;13.05;;;;;;;11.07;100.00;99131.96;1645918;86;21034;-69
2023/11/04 01:55:10;;;;;;;21.35;11.97;;;;;;;11.10;100.00;99136.14;1658358;86;21128;-68
2023/11/04 01:57:39;;;;;;;20.00;12.60;;;;;;;11.11;100.00;99135.91;1645920;87;21086;-68
2023/11/04 02:00:11;;;;;;;19.45;12.63;;;;;;;11.13;100.00;99145.27;1658311;86;21038;-69
2023/11/04 02:02:42;;;;;;;19.35;13.00;;;;;;;11.14;100.00;99151.06;1658308;86;21078;-69
2023/11/04 02:05:11;;;;;;;20.32;13.03;;;;;;;11.17;100.00;99160.72;1658191;86;21077;-69
2023/11/04 02:07:40;;;;;;;19.82;13.13;;;;;;;11.17;100.00;99172.53;1658167;86;21645;-70
2023/11/04 02:10:09;;;;;;;20.57;13.38;;;;;;;11.19;100.00;99178.61;1658321;86;21470;-69
2023/11/04 02:12:39;;;;;;;21.80;13.32;;;;;;;11.21;100.00;99182.49;1646054;87;21049;-69
2023/11/04 02:15:17;;;;;;;21.65;13.68;;;;;;;11.22;100.00;99180.89;1658244;86;21114;-69
2023/11/04 02:17:46;;;;;;;21.23;13.03;;;;;;;11.24;100.00;99183.40;1658366;85;21067;-69
2023/11/04 02:20:15;;;;;;;20.55;12.95;;;;;;;11.25;100.00;99189.19;1658122;86;21071;-69
2023/11/04 02:22:44;;;;;;;20.80;13.25;;;;;;;11.25;100.00;99180.96;1658127;86;21043;-69
2023/11/04 02:25:17;;;;;;;21.70;12.93;;;;;;;11.26;100.00;99164.81;1658219;85;21554;-70
2023/11/04 02:27:46;;;;;;;22.30;14.30;;;;;;;11.27;100.00;99161.84;1658183;86;21030;-68
2023/11/04 02:30:15;;;;;;;22.35;13.88;;;;;;;11.27;100.00;99155.52;1658129;85;21495;-70
2023/11/04 02:32:45;;;;;;;24.75;14.35;;;;;;;11.27;100.00;99157.73;1658382;86;21114;-71
2023/11/04 02:35:15;;;;;;;23.65;13.58;;;;;;;11.30;100.00;99167.39;1658302;86;21055;-69
2023/11/04 02:37:47;;;;;;;20.62;13.85;;;;;;;11.32;100.00;99174.85;1646096;87;21018;-69
2023/11/04 02:40:16;;;;;;;21.68;13.95;;;;;;;11.32;100.00;99167.45;1658334;86;21090;-69
2023/11/04 02:42:46;;;;;;;21.48;13.13;;;;;;;11.33;100.00;99149.94;1658171;86;21493;-68
2023/11/04 02:45:16;;;;;;;22.52;13.75;;;;;;;11.34;100.00;99165.32;1658449;86;21026;-70
2023/11/04 02:47:44;;;;;;;21.00;13.25;;;;;;;11.35;100.00;99179.87;1645903;87;21104;-69
2023/11/04 02:50:13;;;;;;;23.02;13.65;;;;;;;11.37;100.00;99183.22;1658168;86;21031;-70
2023/11/04 02:52:42;;;;;;;24.85;13.72;;;;;;;11.38;100.00;99174.76;1645849;87;21041;-70
2023/11/04 02:55:10;;;;;;;21.35;13.83;;;;;;;11.38;100.00;99172.02;1658188;86;21035;-70
2023/11/04 02:57:39;;;;;;;22.52;13.15;;;;;;;11.40;100.00;99165.77;1646039;87;21018;-70
2023/11/04 03:00:10;;;;;;;24.10;13.32;;;;;;;11.40;100.00;99166.30;1658036;85;21494;-71
2023/11/04 03:02:41;;;;;;;21.77;13.50;;;;;;;11.42;100.00;99173.76;1645708;87;21109;-70
2023/11/04 03:05:11;;;;;;;23.00;13.32;;;;;;;11.44;100.00;99183.42;1658195;86;21162;-69
2023/11/04 03:07:41;;;;;;;23.90;13.48;;;;;;;11.44;100.00;99158.73;1658211;85;21087;-70
2023/11/04 03:10:11;;;;;;;19.48;13.32;;;;;;;11.45;100.00;99163.69;1657998;86;21051;-70
2023/11/04 03:12:39;;;;;;;23.22;13.72;;;;;;;11.46;100.00;99159.88;1658274;86;21070;-69
2023/11/04 03:15:10;;;;;;;21.17;13.62;;;;;;;11.48;100.00;99159.64;1658123;86;21071;-70
2023/11/04 03:17:38;;;;;;;22.35;13.13;;;;;;;11.48;100.00;99159.11;1645834;87;21074;-70
2023/11/04 03:20:09;;;;;;;25.17;14.03;;;;;;;11.48;100.00;99137.70;1657971;86;21035;-70
2023/11/04 03:22:38;;;;;;;24.77;13.83;;;;;;;11.48;100.00;99137.16;1660668;86;21093;-69
2023/11/04 03:25:09;;;;;;;27.75;14.80;;;;;;;11.50;100.00;99152.85;1661015;86;21510;-69
2023/11/04 03:27:38;;;;;;;25.70;15.15;;;;;;;11.50;100.00;99141.88;1661129;86;21103;-69
2023/11/04 03:30:08;;;;;;;27.00;14.70;;;;;;;11.48;100.00;99139.91;1601175;88;21072;-69
2023/11/04 03:32:39;;;;;;;28.47;14.40;;;;;;;11.49;100.00;99138.84;1661102;86;21072;-68
2023/11/04 03:35:10;;;;;;;26.95;14.18;;;;;;;11.49;100.00;99138.84;1626828;88;21570;-68
2023/11/04 03:37:38;;;;;;;25.15;14.68;;;;;;;11.49;100.00;99137.47;1660870;86;21464;-68
2023/11/04 03:40:09;;;;;;;21.68;13.50;;;;;;;11.49;100.00;99134.72;1626721;88;21073;-69
2023/11/04 03:42:38;;;;;;;23.38;13.85;;;;;;;11.51;100.00;99133.11;1660780;85;21074;-69
2023/11/04 03:45:08;;;;;;;22.65;13.58;;;;;;;11.50;100.00;99124.05;1626738;88;21484;-70
2023/11/04 03:47:37;;;;;;;24.32;13.98;;;;;;;11.50;100.00;99118.56;1661120;86;21150;-69
2023/11/04 03:50:07;;;;;;;25.40;14.20;;;;;;;11.51;100.00;99116.66;1626747;88;21088;-68
2023/11/04 03:52:35;;;;;;;22.85;14.03;;;;;;;11.52;100.00;99102.71;1660876;86;21092;-68
2023/11/04 03:55:05;;;;;;;26.60;14.43;;;;;;;11.50;100.00;99105.39;1626743;88;21021;-69
2023/11/04 03:57:34;;;;;;;23.38;14.85;;;;;;;11.49;100.00;99114.16;1661010;86;21064;-69
2023/11/04 04:00:05;;;;;;;27.07;15.05;;;;;;;11.49;100.00;99103.72;1660961;85;21211;-68
2023/11/04 04:02:36;;;;;;;29.42;15.58;;;;;;;11.49;100.00;99099.06;1660654;86;21538;-68
2023/11/04 04:05:06;;;;;;;25.17;15.32;;;;;;;11.50;100.00;99089.77;1627122;88;21098;-69
2023/11/04 04:07:35;;;;;;;29.18;16.32;;;;;;;11.52;100.00;99084.05;1661026;86;21097;-69
2023/11/04 04:10:05;;;;;;;27.17;16.02;;;;;;;11.53;100.00;99089.30;1626809;88;21109;-70
2023/11/04 04:12:34;;;;;;;27.10;15.20;;;;;;;11.53;100.00;99085.18;1661163;85;21103;-68
2023/11/04 04:15:05;;;;;;;27.82;15.40;;;;;;;11.53;100.00;99092.04;1626751;88;21069;-69
2023/11/04 04:17:35;;;;;;;28.87;15.83;;;;;;;11.53;100.00;99092.04;1661171;86;21052;-68
2023/11/04 04:20:07;;;;;;;27.77;15.90;;;;;;;11.53;100.00;99089.30;1626727;88;21097;-72
2023/11/04 04:22:38;;;;;;;28.50;15.23;;;;;;;11.53;100.00;99094.78;1661468;85;21128;-69
2023/11/04 04:25:08;;;;;;;28.57;14.53;;;;;;;11.53;100.00;99097.52;1666011;85;21076;-70
2023/11/04 04:27:37;;;;;;;26.68;15.08;;;;;;;11.54;100.00;99104.68;1631600;88;21058;-71
2023/11/04 04:30:08;;;;;;;26.50;13.90;;;;;;;11.56;100.00;99105.28;1631633;86;21091;-68
2023/11/04 04:32:38;;;;;;;23.50;13.72;;;;;;;11.57;100.00;99105.58;1631637;87;21021;-67
2023/11/04 04:35:07;;;;;;;26.95;14.33;;;;;;;11.57;100.00;99098.72;1631611;88;21478;-69
2023/11/04 04:37:36;;;;;;;26.52;14.53;;;;;;;11.59;100.00;99104.81;1649836;87;21049;-69
2023/11/04 04:40:07;;;;;;;25.55;14.23;;;;;;;11.58;100.00;99104.51;1649591;87;21041;-72
2023/11/04 04:42:36;;;;;;;25.70;14.15;;;;;;;11.60;100.00;99109.22;1666350;86;21013;-69
2023/11/04 04:45:07;;;;;;;28.73;14.50;;;;;;;11.62;100.00;99106.24;1631448;87;21024;-70
2023/11/04 04:47:38;;;;;;;26.37;13.70;;;;;;;11.62;100.00;99100.22;1631473;87;21058;-70
2023/11/04 04:50:08;;;;;;;25.52;13.78;;;;;;;11.62;100.00;99097.48;1631597;87;21113;-69
2023/11/04 04:52:38;;;;;;;26.57;14.10;;;;;;;11.64;100.00;99080.24;1631588;86;21130;-69
2023/11/04 04:55:07;;;;;;;28.80;14.40;;;;;;;11.66;100.00;99080.01;1631433;86;21059;-69
2023/11/04 04:57:37;;;;;;;25.50;13.85;;;;;;;11.66;100.00;99082.75;1631632;86;21090;-70
2023/11/04 05:00:08;;;;;;;24.82;13.40;;;;;;;11.66;100.00;99088.23;1631422;87;21104;-70
2023/11/04 05:02:38;;;;;;;25.82;14.15;;;;;;;11.64;100.00;99091.22;1631441;88;21098;-69
2023/11/04 05:05:09;;;;;;;22.87;12.80;;;;;;;11.67;100.00;99095.39;1631442;88;21052;-68
2023/11/04 05:07:38;;;;;;;26.57;12.85;;;;;;;11.67;100.00;99079.77;1649824;87;21053;-69
2023/11/04 05:10:09;;;;;;;26.97;13.98;;;;;;;11.70;100.00;99095.79;1631366;87;21116;-69
2023/11/04 05:12:38;;;;;;;25.62;14.00;;;;;;;11.72;100.00;99090.91;1606586;88;21109;-69
2023/11/04 05:15:08;;;;;;;26.12;13.90;;;;;;;11.75;100.00;99095.08;1649747;87;21339;-68
2023/11/04 05:17:37;;;;;;;25.68;13.43;;;;;;;11.75;100.00;99095.08;1666071;85;21060;-69
2023/11/04 05:20:08;;;;;;;24.67;13.83;;;;;;;11.74;100.00;99096.98;1631468;88;21522;-69
2023/11/04 05:22:37;;;;;;;26.42;14.30;;;;;;;11.73;100.00;99114.52;1649193;86;21531;-67
2023/11/04 05:25:07;;;;;;;27.37;14.45;;;;;;;11.73;100.00;99122.75;1646207;87;21054;-69
2023/11/04 05:27:36;;;;;;;21.30;12.65;;;;;;;11.72;100.00;99110.11;1658174;86;21158;-69
2023/11/04 05:30:06;;;;;;;21.68;13.00;;;;;;;11.74;100.00;99115.36;1646001;87;21517;-71
2023/11/04 05:32:35;;;;;;;25.20;13.62;;;;;;;11.75;100.00;99123.36;1658283;86;21094;-68
2023/11/04 05:35:08;;;;;;;24.45;13.88;;;;;;;11.75;100.00;99119.23;1645847;87;21559;-68
2023/11/04 05:37:37;;;;;;;22.25;13.10;;;;;;;11.77;100.00;99122.28;1658310;85;21042;-69
2023/11/04 05:40:07;;;;;;;23.42;12.80;;;;;;;11.78;100.00;99130.84;1645826;87;21070;-70
2023/11/04 05:42:37;;;;;;;26.50;13.78;;;;;;;11.79;100.00;99132.52;1658261;86;21516;-68
2023/11/04 05:45:08;;;;;;;26.12;14.28;;;;;;;11.79;100.00;99137.47;1661202;85;21050;-68
2023/11/04 05:47:38;;;;;;;23.30;13.85;;;;;;;11.80;100.00;99130.07;1661243;85;21026;-67
2023/11/04 05:50:09;;;;;;;27.13;13.50;;;;;;;11.81;100.00;99124.34;1661034;85;21086;-68
2023/11/04 05:52:38;;;;;;;24.63;13.28;;;;;;;11.82;100.00;99125.18;1661017;85;21461;-68
2023/11/04 05:55:07;;;;;;;23.50;12.88;;;;;;;11.83;100.00;99129.59;1661273;86;21090;-68
2023/11/04 05:57:36;;;;;;;25.75;13.62;;;;;;;11.83;100.00;99125.48;1660993;86;21050;-68
2023/11/04 06:00:08;;;;;;;24.07;13.50;;;;;;;11.83;100.00;99134.55;1661174;86;21065;-70
2023/11/04 06:02:40;;;;;;;24.95;13.65;;;;;;;11.85;100.00;99128.83;1661073;86;21677;-68
2023/11/04 06:05:09;;;;;;;24.23;13.22;;;;;;;11.87;100.00;99124.77;1661063;85;21462;-69
2023/11/04 06:07:38;;;;;;;24.87;13.60;;;;;;;11.88;100.00;99126.44;1661278;85;21125;-69
2023/11/04 06:10:08;;;;;;;23.15;13.60;;;;;;;11.90;100.00;99128.95;1660999;86;21038;-69
2023/11/04 06:12:38;;;;;;;27.42;14.00;;;;;;;11.90;100.00;99131.69;1661223;86;21037;-70
2023/11/04 06:15:09;;;;;;;24.47;14.15;;;;;;;11.93;100.00;99140.83;1661155;86;21502;-68
2023/11/04 06:17:38;;;;;;;23.77;12.88;;;;;;;11.92;100.00;99134.50;1661211;86;21066;-68
2023/11/04 06:20:09;;;;;;;23.50;13.10;;;;;;;11.93;100.00;99131.22;1661218;86;21085;-69
2023/11/04 06:22:38;;;;;;;21.30;12.78;;;;;;;11.96;100.00;99141.72;1659353;85;21493;-69
2023/11/04 06:25:08;;;;;;;21.55;12.68;;;;;;;11.98;100.00;99147.81;1658342;85;21058;-69
2023/11/04 06:27:38;;;;;;;23.83;13.60;;;;;;;11.98;100.00;99147.27;1658201;85;21078;-71
2023/11/04 06:30:08;;;;;;;24.65;13.75;;;;;;;11.99;100.00;99142.62;1658258;85;21081;-70
2023/11/04 06:32:37;;;;;;;25.77;13.70;;;;;;;12.00;100.00;99118.21;1658185;85;21092;-69
2023/11/04 06:35:08;;;;;;;24.18;13.78;;;;;;;11.99;100.00;99118.75;1658319;86;21109;-68
2023/11/04 06:37:37;;;;;;;23.92;13.88;;;;;;;12.01;100.00;99128.95;1658468;86;21065;-69
2023/11/04 06:40:09;;;;;;;25.17;13.88;;;;;;;12.03;100.00;99129.55;1658159;86;21148;-70
2023/11/04 06:42:38;;;;;;;23.12;13.10;;;;;;;12.05;100.00;99129.31;1658027;85;21458;-68
2023/11/04 06:45:09;;;;;;;22.52;12.65;;;;;;;12.06;100.00;99124.13;1658378;86;21065;-69
2023/11/04 06:47:37;;;;;;;24.25;13.13;;;;;;;12.08;100.00;99118.39;1658178;85;21077;-69
2023/11/04 06:50:08;;;;;;;21.00;12.40;;;;;;;12.08;100.00;99121.14;1658343;86;21037;-69
2023/11/04 06:52:37;;;;;;;24.77;13.10;;;;;;;12.08;100.00;99124.72;1658411;86;21041;-69
2023/11/04 06:55:07;;;;;;;23.07;13.18;;;;;;;12.10;100.00;99122.56;1658359;86;21095;-68
2023/11/04 06:57:36;;;;;;;25.72;13.55;;;;;;;12.12;100.00;99124.54;1658150;86;21053;-68
2023/11/04 07:00:08;;;;;;;24.25;13.22;;;;;;;12.14;100.00;99117.44;1658119;85;21470;-69
2023/11/04 07:02:37;;;;;;;27.87;15.20;;;;;;;12.15;100.00;99117.20;1658326;85;21105;-69
2023/11/04 07:05:09;;;;;;;27.65;14.93;;;;;;;12.15;100.00;99118.57;1658356;86;21061;-69
2023/11/04 07:07:39;;;;;;;23.27;13.80;;;;;;;12.17;100.00;99121.91;1632685;86;21010;-69
2023/11/04 07:10:09;;;;;;;24.18;14.47;;;;;;;12.19;100.00;99121.13;1658178;86;21092;-68
2023/11/04 07:12:39;;;;;;;24.30;14.10;;;;;;;12.19;100.00;99128.53;1658259;85;21531;-68
2023/11/04 07:15:09;;;;;;;23.65;14.78;;;;;;;12.21;100.00;99126.39;1658214;85;21050;-69
2023/11/04 07:17:39;;;;;;;27.35;14.63;;;;;;;12.22;100.00;99128.05;1658329;86;21074;-68
2023/11/04 07:20:10;;;;;;;25.05;13.75;;;;;;;12.24;100.00;99132.77;1658248;86;21708;-70
2023/11/04 07:22:39;;;;;;;28.73;13.78;;;;;;;12.24;100.00;99120.41;1662245;86;21097;-69
2023/11/04 07:25:09;;;;;;;24.63;13.43;;;;;;;12.25;100.00;99117.43;1668329;85;21066;-70
2023/11/04 07:27:39;;;;;;;22.73;13.18;;;;;;;12.26;100.00;99125.96;1668236;85;21535;-70
2023/11/04 07:30:09;;;;;;;22.60;12.58;;;;;;;12.27;100.00;99119.94;1643471;86;21089;-68
2023/11/04 07:32:39;;;;;;;24.80;13.68;;;;;;;12.27;100.00;99119.39;1668202;85;21061;-69
2023/11/04 07:35:10;;;;;;;19.73;12.03;;;;;;;12.29;100.00;99117.24;1668381;86;21093;-71
2023/11/04 07:37:40;;;;;;;21.15;12.50;;;;;;;12.30;100.00;99114.80;1668159;85;21480;-69
2023/11/04 07:40:10;;;;;;;20.60;12.10;;;;;;;12.33;100.00;99113.48;1668149;85;21449;-70
2023/11/04 07:42:40;;;;;;;21.00;12.07;;;;;;;12.33;100.00;99117.06;1668140;86;21496;-69
2023/11/04 07:45:13;;;;;;;20.40;11.80;;;;;;;12.35;100.00;99120.44;1668287;85;21130;-68
2023/11/04 07:47:43;;;;;;;20.05;11.55;;;;;;;12.37;100.00;99119.66;1668188;85;21173;-69
2023/11/04 07:50:13;;;;;;;21.62;11.88;;;;;;;12.38;100.00;99115.83;1668319;85;21033;-70
2023/11/04 07:52:42;;;;;;;23.07;13.05;;;;;;;12.38;100.00;99103.47;1668389;86;21104;-68
2023/11/04 07:55:13;;;;;;;22.05;11.95;;;;;;;12.38;100.00;99085.63;1667817;86;21104;-70
2023/11/04 07:57:42;;;;;;;20.57;12.35;;;;;;;12.41;100.00;99100.78;1668095;85;21033;-69
2023/11/04 08:00:11;;;;;;;20.05;12.53;;;;;;;12.42;100.00;99102.45;1668174;86;21109;-70
2023/11/04 08:02:40;;;;;;;20.97;12.50;;;;;;;12.43;100.00;99095.05;1668202;86;21501;-69
2023/11/04 08:05:10;;;;;;;24.87;13.48;;;;;;;12.44;100.00;99087.94;1668259;85;21053;-70
2023/11/04 08:07:40;;;;;;;21.52;12.80;;;;;;;12.49;100.00;99105.06;1668467;85;21058;-70
2023/11/04 08:10:09;;;;;;;23.47;13.53;;;;;;;12.49;100.00;99097.66;1668395;85;21073;-69
2023/11/04 08:12:38;;;;;;;23.05;13.32;;;;;;;12.53;100.00;99100.22;1668371;85;21105;-70
2023/11/04 08:15:09;;;;;;;24.15;13.75;;;;;;;12.54;100.00;99091.44;1668416;86;21061;-69
2023/11/04 08:17:39;;;;;;;26.07;14.35;;;;;;;12.55;100.00;99093.95;1668283;86;21120;-69
2023/11/04 08:20:11;;;;;;;22.02;13.28;;;;;;;12.57;100.00;99101.94;1668279;86;21076;-69
2023/11/04 08:22:40;;;;;;;24.72;13.93;;;;;;;12.57;100.00;99108.81;1668056;86;21093;-69
2023/11/04 08:25:09;;;;;;;23.67;13.62;;;;;;;12.58;100.00;99110.48;1668244;85;21196;-70
2023/11/04 08:27:38;;;;;;;24.10;14.28;;;;;;;12.58;100.00;99114.60;1668234;85;21583;-70
2023/11/04 08:30:09;;;;;;;22.95;13.38;;;;;;;12.57;100.00;99111.56;1668178;86;21500;-72
2023/11/04 08:32:38;;;;;;;26.75;14.47;;;;;;;12.58;100.00;99103.61;1668454;85;21460;-70
2023/11/04 08:35:08;;;;;;;22.42;14.30;;;;;;;12.58;100.00;99097.58;1668427;86;21038;-69
2023/11/04 08:37:38;;;;;;;23.55;14.25;;;;;;;12.60;100.00;99098.17;1668244;86;21510;-70
2023/11/04 08:40:09;;;;;;;25.17;14.78;;;;;;;12.61;100.00;99088.84;1668408;85;21081;-70
2023/11/04 08:42:38;;;;;;;24.20;14.75;;;;;;;12.63;100.00;99098.23;1668390;85;21604;-69
2023/11/04 08:45:12;;;;;;;29.05;15.75;;;;;;;12.67;100.00;99088.42;1668274;86;21168;-69
2023/11/04 08:47:40;;;;;;;26.60;15.48;;;;;;;12.69;100.00;99085.72;1668241;86;21392;-71
2023/11/04 08:50:10;;;;;;;26.37;15.28;;;;;;;12.72;100.00;99088.52;1668213;86;21084;-69
2023/11/04 08:52:40;;;;;;;29.32;15.50;;;;;;;12.73;100.00;99092.94;1665738;84;21601;-72
2023/11/04 08:55:10;;;;;;;26.93;15.48;;;;;;;12.74;100.00;99090.48;1660081;86;21031;-72
2023/11/04 08:57:38;;;;;;;25.88;15.60;;;;;;;12.77;100.00;99091.91;1638524;87;21046;-73
2023/11/04 09:00:11;;;;;;;27.98;15.13;;;;;;;12.77;100.00;99088.63;1696407;84;21086;-72
2023/11/04 09:02:40;;;;;;;27.02;15.65;;;;;;;12.78;100.00;99075.72;1673634;84;21095;-71
2023/11/04 09:05:10;;;;;;;24.05;14.93;;;;;;;12.80;100.00;99073.56;1633002;87;21455;-74
2023/11/04 09:07:40;;;;;;;26.17;15.48;;;;;;;12.82;100.00;99073.61;1632559;87;21072;-73
2023/11/04 09:10:10;;;;;;;26.15;14.95;;;;;;;12.83;100.00;99075.27;1634092;87;21494;-72
2023/11/04 09:12:39;;;;;;;26.20;15.28;;;;;;;12.84;100.00;99074.20;1636517;87;21486;-70
2023/11/04 09:15:11;;;;;;;28.83;15.75;;;;;;;12.86;100.00;99069.29;1637985;87;21110;-72
2023/11/04 09:17:40;;;;;;;28.27;16.20;;;;;;;12.88;100.00;99066.30;1664971;86;21055;-71
2023/11/04 09:20:10;;;;;;;28.90;16.12;;;;;;;12.86;100.00;99058.84;1664973;86;21086;-71
2023/11/04 09:22:40;;;;;;;28.27;16.60;;;;;;;12.86;100.00;99053.34;1661942;86;21084;-72
2023/11/04 09:25:10;;;;;;;30.30;16.40;;;;;;;12.86;100.00;99047.30;1648173;87;21052;-72
2023/11/04 09:27:39;;;;;;;30.55;16.17;;;;;;;12.86;100.00;99041.80;1647322;86;21471;-70
2023/11/04 09:30:10;;;;;;;28.85;16.35;;;;;;;12.88;100.00;99045.14;1619037;87;21219;-69
2023/11/04 09:32:39;;;;;;;27.67;15.65;;;;;;;12.89;100.00;99044.06;1627775;88;21060;-71
2023/11/04 09:35:15;;;;;;;28.98;15.10;;;;;;;12.89;100.00;99038.56;1681871;85;20995;-73
2023/11/04 09:37:44;;;;;;;27.77;14.98;;;;;;;12.91;100.00;99037.77;1682008;84;22170;-70
2023/11/04 09:40:13;;;;;;;25.85;14.03;;;;;;;12.93;100.00;99027.91;1681978;84;21055;-74
2023/11/04 09:42:44;;;;;;;27.98;14.65;;;;;;;12.93;100.00;99029.28;1681953;84;21540;-73
2023/11/04 09:45:15;;;;;;;26.20;14.50;;;;;;;12.95;100.00;99033.45;1681896;85;21054;-71
2023/11/04 09:47:44;;;;;;;25.52;14.10;;;;;;;12.96;100.00;99032.37;1679333;85;21074;-72
2023/11/04 09:50:12;;;;;;;20.72;12.33;;;;;;;12.97;100.00;99020.29;1682100;84;22050;-72
2023/11/04 09:52:41;;;;;;;22.73;12.60;;;;;;;12.97;100.00;99003.80;1682092;85;21046;-70
2023/11/04 09:55:10;;;;;;;19.62;12.30;;;;;;;12.98;100.00;98998.59;1681848;85;21512;-71
2023/11/04 09:57:39;;;;;;;18.70;11.18;;;;;;;13.02;100.00;98998.95;1681921;85;21066;-70
2023/11/04 10:00:11;;;;;;;18.70;11.05;;;;;;;13.05;100.00;98992.12;1682188;84;21481;-70
2023/11/04 10:02:41;;;;;;;17.12;10.03;;;;;;;13.08;100.00;98977.89;1685013;85;21075;-72
2023/11/04 10:05:10;;;;;;;16.67;11.15;;;;;;;13.08;100.00;98970.47;1685680;85;21031;-71
2023/11/04 10:07:40;;;;;;;15.72;10.30;;;;;;;13.07;100.00;98972.92;1658787;85;21059;-70
2023/11/04 10:10:10;;;;;;;17.35;10.60;;;;;;;13.06;100.00;98965.76;1685621;85;21090;-70
2023/11/04 10:12:42;;;;;;;19.82;11.43;;;;;;;13.07;100.00;98971.55;1683342;85;21036;-70
2023/11/04 10:15:11;;;;;;;21.15;12.45;;;;;;;13.08;100.00;98968.27;1685466;84;21528;-72
2023/11/04 10:17:40;;;;;;;22.62;13.72;;;;;;;13.10;100.00;98963.34;1685507;85;21485;-73
2023/11/04 10:20:11;;;;;;;29.20;15.43;;;;;;;13.09;100.00;98961.14;1658563;85;21134;-73
2023/11/04 10:22:40;;;;;;;34.03;18.05;;;;;;;13.13;100.00;98962.84;1685615;84;21094;-71
2023/11/04 10:25:09;;;;;;;40.92;21.60;;;;;;;13.13;100.00;98955.97;1685392;85;21074;-73
2023/11/04 10:27:38;;;;;;;55.12;25.32;;;;;;;13.15;100.00;98959.30;1685333;84;21302;-72
2023/11/04 10:30:09;;;;;;;61.02;28.20;;;;;;;13.16;100.00;98953.55;1685632;85;21058;-72
2023/11/04 10:32:38;;;;;;;67.97;29.60;;;;;;;13.18;100.00;98956.92;1685857;84;21079;-71
2023/11/04 10:35:11;;;;;;;71.90;31.55;;;;;;;13.18;100.00;98958.84;1685527;84;21074;-72
2023/11/04 10:37:40;;;;;;;72.08;32.75;;;;;;;13.19;100.00;98944.84;1685705;85;21015;-70
2023/11/04 10:40:11;;;;;;;80.03;34.38;;;;;;;13.21;100.00;98936.34;1685420;85;21062;-71
2023/11/04 10:42:43;;;;;;;74.00;32.58;;;;;;;13.23;100.00;98931.42;1685565;84;21055;-69
2023/11/04 10:45:19;;;;;;;88.00;34.80;;;;;;;13.25;100.00;98927.88;1685523;85;21106;-70
2023/11/04 10:47:59;;;;;;;90.32;35.05;;;;;;;13.27;100.00;98925.16;1685581;84;21106;-71
2023/11/04 10:50:35;;;;;;;88.17;36.13;;;;;;;13.28;100.00;98907.58;1685518;84;21098;-71
2023/11/04 10:53:33;;;;;;;92.40;36.30;;;;;;;13.28;100.00;98905.37;1685544;85;21581;-69
2023/11/04 10:56:11;;;;;;;87.65;35.00;;;;;;;13.28;100.00;98899.87;1685836;85;21516;-72
2023/11/04 10:59:04;;;;;;;86.40;34.58;;;;;;;13.29;100.00;98902.36;1685516;85;21515;-71
2023/11/04 11:01:35;;;;;;;95.70;36.48;;;;;;;13.30;100.00;98905.41;1682673;84;21537;-70
2023/11/04 11:04:05;;;;;;;79.70;33.28;;;;;;;13.33;100.00;98920.58;1677039;85;21486;-68
2023/11/04 11:06:34;;;;;;;85.17;35.03;;;;;;;13.35;100.00;98914.28;1677248;85;21075;-69
2023/11/04 11:09:05;;;;;;;81.75;33.85;;;;;;;13.38;100.00;98909.64;1652224;85;21042;-70
2023/11/04 11:12:00;;;;;;;81.85;33.75;;;;;;;13.39;100.00;98904.98;1677455;85;21031;-69
2023/11/04 11:14:30;;;;;;;94.50;35.17;;;;;;;13.42;100.00;98906.69;1677263;85;21103;-70
2023/11/04 11:17:00;;;;;;;81.25;33.88;;;;;;;13.46;100.00;98900.13;1677248;85;21462;-71
2023/11/04 11:19:33;;;;;;;70.47;31.90;;;;;;;13.46;100.00;98904.25;1677051;85;21114;-70
2023/11/04 11:22:05;;;;;;;83.45;33.35;;;;;;;13.46;100.00;98898.21;1677236;85;21538;-69